createdAt,value
2018-11-02T00:00:10.888Z,209
2018-11-02T00:00:24.987Z,209
2018-11-02T00:00:37.959Z,209
2018-11-02T00:00:50.231Z,200
2018-11-02T00:01:03.222Z,200
2018-11-02T00:01:15.693Z,200
2018-11-02T00:01:27.926Z,200
2018-11-02T00:01:40.213Z,200
2018-11-02T00:01:52.460Z,200
2018-11-02T00:02:04.702Z,200
2018-11-02T00:02:17.909Z,200
2018-11-02T00:02:30.138Z,200
2018-11-02T00:02:42.345Z,200
2018-11-02T00:02:54.579Z,200
2018-11-02T00:03:06.814Z,200
2018-11-02T00:03:19.888Z,200
2018-11-02T00:03:32.161Z,194
2018-11-02T00:03:44.395Z,194
2018-11-02T00:03:56.642Z,194
2018-11-02T00:04:08.929Z,194
2018-11-02T00:04:21.551Z,184
2018-11-02T00:04:34.692Z,184
2018-11-02T00:04:46.936Z,178
2018-11-02T00:04:59.167Z,183
2018-11-02T00:05:12.038Z,192
2018-11-02T00:05:24.278Z,203
2018-11-02T00:05:37.313Z,202
2018-11-02T00:05:49.565Z,173
2018-11-02T00:06:02.017Z,173
2018-11-02T00:06:15.494Z,172
2018-11-02T00:06:29.707Z,172
2018-11-02T00:06:43.061Z,172
2018-11-02T00:06:55.297Z,172
2018-11-02T00:07:07.550Z,172
2018-11-02T00:07:19.849Z,198
2018-11-02T00:07:32.255Z,194
2018-11-02T00:07:45.470Z,188
2018-11-02T00:07:57.670Z,180
2018-11-02T00:08:09.892Z,180
2018-11-02T00:08:22.131Z,180
2018-11-02T00:08:34.359Z,180
2018-11-02T00:08:46.905Z,180
2018-11-02T00:08:59.781Z,180
2018-11-02T00:09:12.001Z,175
2018-11-02T00:09:24.213Z,175
2018-11-02T00:09:36.425Z,175
2018-11-02T00:09:48.688Z,175
2018-11-02T00:10:01.937Z,175
2018-11-02T00:10:14.180Z,205
2018-11-02T00:10:26.413Z,169
2018-11-02T00:10:38.686Z,169
2018-11-02T00:10:50.909Z,169
2018-11-02T00:11:03.819Z,187
2018-11-02T00:11:16.192Z,186
2018-11-02T00:11:28.445Z,167
2018-11-02T00:11:40.692Z,188
2018-11-02T00:11:52.981Z,192
2018-11-02T00:12:05.396Z,243
2018-11-02T00:12:19.760Z,250
2018-11-02T00:12:34.200Z,250
2018-11-02T00:12:46.491Z,203
2018-11-02T00:12:58.684Z,203
2018-11-02T00:13:10.987Z,203
2018-11-02T00:13:24.035Z,203
2018-11-02T00:13:36.270Z,152
2018-11-02T00:13:48.510Z,212
2018-11-02T00:14:00.728Z,209
2018-11-02T00:14:13.001Z,149
2018-11-02T00:14:26.068Z,150
2018-11-02T00:14:38.301Z,190
2018-11-02T00:14:50.535Z,194
2018-11-02T00:15:02.839Z,159
2018-11-02T00:15:15.387Z,188
2018-11-02T00:15:28.510Z,221
2018-11-02T00:15:40.875Z,189
2018-11-02T00:15:53.095Z,173
2018-11-02T00:16:05.413Z,167
2018-11-02T00:16:17.677Z,171
2018-11-02T00:16:30.109Z,195
2018-11-02T00:16:43.248Z,188
2018-11-02T00:16:55.502Z,188
2018-11-02T00:17:07.813Z,188
2018-11-02T00:17:20.079Z,182
2018-11-02T00:17:32.321Z,180
2018-11-02T00:17:45.348Z,180
2018-11-02T00:17:57.566Z,202
2018-11-02T00:18:09.820Z,175
2018-11-02T00:18:22.037Z,183
2018-11-02T00:18:34.238Z,209
2018-11-02T00:18:46.936Z,162
2018-11-02T00:18:59.285Z,180
2018-11-02T00:19:11.484Z,178
2018-11-02T00:19:23.758Z,192
2018-11-02T00:19:35.954Z,208
2018-11-02T00:19:48.258Z,200
2018-11-02T00:20:01.323Z,184
2018-11-02T00:20:13.760Z,171
2018-11-02T00:20:26.008Z,162
2018-11-02T00:20:38.248Z,198
2018-11-02T00:20:50.561Z,175
2018-11-02T00:21:03.592Z,146
2018-11-02T00:21:15.905Z,171
2018-11-02T00:21:28.166Z,169
2018-11-02T00:21:40.379Z,169
2018-11-02T00:21:52.644Z,169
2018-11-02T00:22:05.167Z,169
2018-11-02T00:22:18.047Z,169
2018-11-02T00:22:30.364Z,169
2018-11-02T00:22:42.705Z,165
2018-11-02T00:22:54.906Z,163
2018-11-02T00:23:07.632Z,148
2018-11-02T00:23:20.731Z,175
2018-11-02T00:23:32.960Z,163
2018-11-02T00:23:45.224Z,176
2018-11-02T00:23:57.490Z,173
2018-11-02T00:24:09.718Z,180
2018-11-02T00:24:22.594Z,171
2018-11-02T00:24:35.004Z,168
2018-11-02T00:24:47.221Z,175
2018-11-02T00:24:59.604Z,174
2018-11-02T00:25:11.960Z,175
2018-11-02T00:25:24.442Z,187
2018-11-02T00:25:37.096Z,152
2018-11-02T00:25:49.375Z,152
2018-11-02T00:26:01.638Z,152
2018-11-02T00:26:13.887Z,143
2018-11-02T00:26:26.140Z,184
2018-11-02T00:26:39.165Z,179
2018-11-02T00:26:51.445Z,180
2018-11-02T00:27:03.659Z,158
2018-11-02T00:27:15.849Z,160
2018-11-02T00:27:28.237Z,149
2018-11-02T00:27:41.174Z,148
2018-11-02T00:27:53.387Z,166
2018-11-02T00:28:05.630Z,191
2018-11-02T00:28:17.830Z,212
2018-11-02T00:28:30.113Z,209
2018-11-02T00:28:42.514Z,209
2018-11-02T00:28:55.559Z,147
2018-11-02T00:29:07.959Z,147
2018-11-02T00:29:20.276Z,157
2018-11-02T00:29:32.555Z,159
2018-11-02T00:29:44.825Z,164
2018-11-02T00:29:57.923Z,159
2018-11-02T00:30:10.179Z,186
2018-11-02T00:30:22.420Z,192
2018-11-02T00:30:34.705Z,211
2018-11-02T00:30:46.964Z,196
2018-11-02T00:31:00.108Z,192
2018-11-02T00:31:12.376Z,193
2018-11-02T00:31:25.156Z,196
2018-11-02T00:31:37.443Z,174
2018-11-02T00:31:50.541Z,174
2018-11-02T00:32:05.435Z,174
2018-11-02T00:32:18.281Z,174
2018-11-02T00:32:30.607Z,174
2018-11-02T00:32:42.840Z,174
2018-11-02T00:32:55.095Z,174
2018-11-02T00:33:07.304Z,174
2018-11-02T00:33:20.186Z,174
2018-11-02T00:33:32.455Z,174
2018-11-02T00:33:44.661Z,174
2018-11-02T00:33:56.893Z,174
2018-11-02T00:34:09.137Z,174
2018-11-02T00:34:22.407Z,174
2018-11-02T00:34:34.628Z,174
2018-11-02T00:34:46.873Z,174
2018-11-02T00:34:59.087Z,176
2018-11-02T00:35:11.346Z,197
2018-11-02T00:35:24.166Z,169
2018-11-02T00:35:36.513Z,184
2018-11-02T00:35:48.871Z,162
2018-11-02T00:36:01.175Z,165
2018-11-02T00:36:13.433Z,165
2018-11-02T00:36:25.709Z,189
2018-11-02T00:36:38.715Z,189
2018-11-02T00:36:50.970Z,189
2018-11-02T00:37:03.261Z,180
2018-11-02T00:37:15.481Z,167
2018-11-02T00:37:27.996Z,165
2018-11-02T00:37:41.117Z,165
2018-11-02T00:37:53.314Z,165
2018-11-02T00:38:05.559Z,165
2018-11-02T00:38:17.788Z,165
2018-11-02T00:38:30.047Z,165
2018-11-02T00:38:42.822Z,165
2018-11-02T00:38:55.372Z,165
2018-11-02T00:39:07.612Z,165
2018-11-02T00:39:19.989Z,165
2018-11-02T00:39:32.213Z,165
2018-11-02T00:39:44.452Z,165
2018-11-02T00:39:57.786Z,165
2018-11-02T00:40:10.037Z,165
2018-11-02T00:40:22.297Z,165
2018-11-02T00:40:34.536Z,165
2018-11-02T00:40:46.759Z,165
2018-11-02T00:40:59.620Z,165
2018-11-02T00:41:11.868Z,165
2018-11-02T00:41:24.110Z,171
2018-11-02T00:41:36.336Z,161
2018-11-02T00:41:48.560Z,163
2018-11-02T00:42:01.282Z,163
2018-11-02T00:42:14.030Z,163
2018-11-02T00:42:26.294Z,163
2018-11-02T00:42:38.544Z,163
2018-11-02T00:42:50.804Z,163
2018-11-02T00:43:03.064Z,163
2018-11-02T00:43:16.262Z,163
2018-11-02T00:43:28.552Z,163
2018-11-02T00:43:40.821Z,163
2018-11-02T00:43:53.733Z,163
2018-11-02T00:44:07.508Z,163
2018-11-02T00:44:23.085Z,175
2018-11-02T00:44:35.359Z,184
2018-11-02T00:44:47.558Z,184
2018-11-02T00:44:59.833Z,184
2018-11-02T00:45:12.120Z,184
2018-11-02T00:45:25.047Z,184
2018-11-02T00:45:37.341Z,184
2018-11-02T00:45:49.575Z,184
2018-11-02T00:46:01.895Z,184
2018-11-02T00:46:14.229Z,184
2018-11-02T00:46:26.929Z,184
2018-11-02T00:46:39.577Z,184
2018-11-02T00:46:51.803Z,184
2018-11-02T00:47:04.059Z,184
2018-11-02T00:47:16.297Z,184
2018-11-02T00:47:28.524Z,173
2018-11-02T00:47:41.876Z,173
2018-11-02T00:47:54.072Z,173
2018-11-02T00:48:06.348Z,173
2018-11-02T00:48:18.581Z,173
2018-11-02T00:48:30.880Z,173
2018-11-02T00:48:44.019Z,173
2018-11-02T00:48:56.234Z,173
2018-11-02T00:49:08.474Z,173
2018-11-02T00:49:20.708Z,173
2018-11-02T00:49:32.930Z,173
2018-11-02T00:49:47.145Z,173
2018-11-02T00:49:59.529Z,173
2018-11-02T00:50:11.771Z,173
2018-11-02T00:50:24.008Z,173
2018-11-02T00:50:36.223Z,173
2018-11-02T00:50:48.536Z,173
2018-11-02T00:51:01.660Z,173
2018-11-02T00:51:13.968Z,173
2018-11-02T00:51:26.202Z,161
2018-11-02T00:51:38.406Z,173
2018-11-02T00:51:50.618Z,181
2018-11-02T00:52:03.834Z,181
2018-11-02T00:52:16.052Z,181
2018-11-02T00:52:28.258Z,181
2018-11-02T00:52:40.469Z,181
2018-11-02T00:52:52.846Z,181
2018-11-02T00:53:05.516Z,181
2018-11-02T00:53:18.608Z,181
2018-11-02T00:53:30.873Z,181
2018-11-02T00:53:43.129Z,181
2018-11-02T00:53:55.436Z,181
2018-11-02T00:54:07.679Z,181
2018-11-02T00:54:20.909Z,181
2018-11-02T00:54:33.126Z,181
2018-11-02T00:54:45.466Z,181
2018-11-02T00:54:57.795Z,181
2018-11-02T00:55:10.309Z,181
2018-11-02T00:55:23.333Z,181
2018-11-02T00:55:35.606Z,181
2018-11-02T00:55:47.860Z,181
2018-11-02T00:56:00.129Z,181
2018-11-02T00:56:12.495Z,181
2018-11-02T00:56:25.034Z,181
2018-11-02T00:56:37.684Z,181
2018-11-02T00:56:49.884Z,181
2018-11-02T00:57:02.091Z,181
2018-11-02T00:57:14.333Z,181
2018-11-02T00:57:26.593Z,181
2018-11-02T00:57:39.473Z,181
2018-11-02T00:57:51.797Z,181
2018-11-02T00:58:04.018Z,181
2018-11-02T00:58:16.479Z,181
2018-11-02T00:58:28.942Z,181
2018-11-02T00:58:42.054Z,181
2018-11-02T00:58:54.263Z,181
2018-11-02T00:59:06.560Z,181
2018-11-02T00:59:18.916Z,181
2018-11-02T00:59:31.231Z,181
2018-11-02T00:59:43.913Z,181
2018-11-02T00:59:56.774Z,181
2018-11-02T01:00:09.091Z,181
2018-11-02T01:00:21.425Z,181
2018-11-02T01:00:34.066Z,181
2018-11-02T01:00:46.397Z,181
2018-11-02T01:00:59.686Z,181
2018-11-02T01:01:11.938Z,181
2018-11-02T01:01:24.151Z,181
2018-11-02T01:01:36.384Z,181
2018-11-02T01:01:48.629Z,181
2018-11-02T01:02:01.836Z,181
2018-11-02T01:02:14.103Z,181
2018-11-02T01:02:26.337Z,181
2018-11-02T01:02:38.620Z,181
2018-11-02T01:02:50.848Z,181
2018-11-02T01:03:03.203Z,181
2018-11-02T01:03:16.541Z,181
2018-11-02T01:03:28.828Z,181
2018-11-02T01:03:41.184Z,181
2018-11-02T01:03:53.436Z,181
2018-11-02T01:04:05.716Z,181
2018-11-02T01:04:18.996Z,181
2018-11-02T01:04:31.225Z,181
2018-11-02T01:04:44.416Z,181
2018-11-02T01:04:57.043Z,181
2018-11-02T01:05:09.280Z,181
2018-11-02T01:05:22.343Z,181
2018-11-02T01:05:34.635Z,181
2018-11-02T01:05:47.744Z,181
2018-11-02T01:06:00.240Z,181
2018-11-02T01:06:12.485Z,181
2018-11-02T01:06:25.320Z,181
2018-11-02T01:06:38.097Z,181
2018-11-02T01:06:50.335Z,181
2018-11-02T01:07:02.569Z,181
2018-11-02T01:07:14.804Z,181
2018-11-02T01:07:27.022Z,181
2018-11-02T01:07:40.202Z,181
2018-11-02T01:07:52.428Z,181
2018-11-02T01:08:04.697Z,181
2018-11-02T01:08:16.905Z,181
2018-11-02T01:08:29.165Z,181
2018-11-02T01:08:42.330Z,181
2018-11-02T01:08:54.579Z,181
2018-11-02T01:09:06.859Z,181
2018-11-02T01:09:19.177Z,181
2018-11-02T01:09:31.423Z,181
2018-11-02T01:09:43.828Z,181
2018-11-02T01:09:56.587Z,181
2018-11-02T01:10:08.830Z,181
2018-11-02T01:10:21.056Z,181
2018-11-02T01:10:33.269Z,181
2018-11-02T01:10:45.619Z,181
2018-11-02T01:10:58.795Z,181
2018-11-02T01:11:11.056Z,181
2018-11-02T01:11:23.301Z,181
2018-11-02T01:11:35.530Z,181
2018-11-02T01:11:47.722Z,181
2018-11-02T01:12:00.879Z,181
2018-11-02T01:12:13.139Z,181
2018-11-02T01:12:25.348Z,181
2018-11-02T01:12:37.798Z,181
2018-11-02T01:12:50.009Z,181
2018-11-02T01:13:02.231Z,181
2018-11-02T01:13:15.353Z,181
2018-11-02T01:13:27.593Z,181
2018-11-02T01:13:39.851Z,181
2018-11-02T01:13:52.033Z,181
2018-11-02T01:14:04.267Z,181
2018-11-02T01:14:17.305Z,181
2018-11-02T01:14:29.638Z,181
2018-11-02T01:14:41.887Z,181
2018-11-02T01:14:54.139Z,181
2018-11-02T01:15:06.553Z,181
2018-11-02T01:15:19.560Z,181
2018-11-02T01:15:32.008Z,181
2018-11-02T01:15:44.251Z,181
2018-11-02T01:15:56.430Z,181
2018-11-02T01:16:08.647Z,181
2018-11-02T01:16:21.002Z,181
2018-11-02T01:16:35.208Z,181
2018-11-02T01:16:48.855Z,181
2018-11-02T01:17:01.782Z,181
2018-11-02T01:17:14.106Z,181
2018-11-02T01:17:26.378Z,181
2018-11-02T01:17:39.337Z,181
2018-11-02T01:17:51.818Z,181
2018-11-02T01:18:04.023Z,181
2018-11-02T01:18:16.275Z,181
2018-11-02T01:18:28.493Z,181
2018-11-02T01:18:41.556Z,181
2018-11-02T01:18:53.759Z,181
2018-11-02T01:19:05.996Z,181
2018-11-02T01:19:18.314Z,181
2018-11-02T01:19:30.540Z,181
2018-11-02T01:19:42.796Z,181
2018-11-02T01:19:55.753Z,181
2018-11-02T01:20:07.998Z,181
2018-11-02T01:20:20.248Z,143
2018-11-02T01:20:32.462Z,143
2018-11-02T01:20:44.710Z,138
2018-11-02T01:20:57.778Z,138
2018-11-02T01:21:10.159Z,156
2018-11-02T01:21:22.392Z,158
2018-11-02T01:21:34.598Z,158
2018-11-02T01:21:46.865Z,157
2018-11-02T01:22:00.251Z,157
2018-11-02T01:22:12.660Z,157
2018-11-02T01:22:24.921Z,157
2018-11-02T01:22:37.347Z,157
2018-11-02T01:22:49.592Z,157
2018-11-02T01:23:01.860Z,157
2018-11-02T01:23:14.914Z,157
2018-11-02T01:23:27.130Z,157
2018-11-02T01:23:39.395Z,157
2018-11-02T01:23:51.637Z,157
2018-11-02T01:24:04.423Z,157
2018-11-02T01:24:17.906Z,157
2018-11-02T01:24:30.359Z,157
2018-11-02T01:24:42.623Z,157
2018-11-02T01:24:54.857Z,157
2018-11-02T01:25:07.252Z,157
2018-11-02T01:25:20.206Z,157
2018-11-02T01:25:32.458Z,157
2018-11-02T01:25:44.708Z,157
2018-11-02T01:25:56.998Z,157
2018-11-02T01:26:09.251Z,157
2018-11-02T01:26:21.636Z,157
2018-11-02T01:26:34.586Z,157
2018-11-02T01:26:46.798Z,157
2018-11-02T01:26:59.023Z,157
2018-11-02T01:27:11.277Z,157
2018-11-02T01:27:23.629Z,157
2018-11-02T01:27:36.747Z,157
2018-11-02T01:27:48.980Z,157
2018-11-02T01:28:01.249Z,157
2018-11-02T01:28:13.527Z,157
2018-11-02T01:28:25.744Z,157
2018-11-02T01:28:38.743Z,157
2018-11-02T01:28:51.126Z,157
2018-11-02T01:29:03.572Z,157
2018-11-02T01:29:15.817Z,157
2018-11-02T01:29:28.103Z,157
2018-11-02T01:29:40.324Z,157
2018-11-02T01:29:53.741Z,157
2018-11-02T01:30:05.957Z,157
2018-11-02T01:30:18.196Z,157
2018-11-02T01:30:30.404Z,157
2018-11-02T01:30:42.623Z,157
2018-11-02T01:30:55.818Z,157
2018-11-02T01:31:08.107Z,157
2018-11-02T01:31:20.350Z,157
2018-11-02T01:31:32.567Z,157
2018-11-02T01:31:44.823Z,157
2018-11-02T01:31:57.705Z,160
2018-11-02T01:32:10.129Z,160
2018-11-02T01:32:22.344Z,160
2018-11-02T01:32:34.570Z,160
2018-11-02T01:32:46.814Z,160
2018-11-02T01:32:59.063Z,160
2018-11-02T01:33:12.254Z,160
2018-11-02T01:33:24.481Z,161
2018-11-02T01:33:36.712Z,161
2018-11-02T01:33:48.984Z,161
2018-11-02T01:34:01.229Z,161
2018-11-02T01:34:14.396Z,163
2018-11-02T01:34:26.632Z,163
2018-11-02T01:34:38.873Z,163
2018-11-02T01:34:51.078Z,163
2018-11-02T01:35:03.303Z,163
2018-11-02T01:35:16.117Z,163
2018-11-02T01:35:28.599Z,163
2018-11-02T01:35:40.937Z,163
2018-11-02T01:35:53.187Z,163
2018-11-02T01:36:05.490Z,188
2018-11-02T01:36:17.743Z,188
2018-11-02T01:36:30.980Z,188
2018-11-02T01:36:43.412Z,192
2018-11-02T01:36:55.621Z,192
2018-11-02T01:37:07.893Z,171
2018-11-02T01:37:20.178Z,165
2018-11-02T01:37:33.713Z,165
2018-11-02T01:37:46.146Z,165
2018-11-02T01:37:58.390Z,155
2018-11-02T01:38:10.664Z,183
2018-11-02T01:38:22.874Z,181
2018-11-02T01:38:35.704Z,181
2018-11-02T01:38:48.210Z,188
2018-11-02T01:39:00.445Z,175
2018-11-02T01:39:12.664Z,173
2018-11-02T01:39:24.933Z,173
2018-11-02T01:39:37.318Z,173
2018-11-02T01:39:50.314Z,173
2018-11-02T01:40:02.557Z,172
2018-11-02T01:40:14.865Z,172
2018-11-02T01:40:27.189Z,172
2018-11-02T01:40:39.505Z,175
2018-11-02T01:40:52.563Z,178
2018-11-02T01:41:04.785Z,178
2018-11-02T01:41:17.035Z,178
2018-11-02T01:41:29.285Z,178
2018-11-02T01:41:41.498Z,178
2018-11-02T01:41:54.149Z,178
2018-11-02T01:42:06.985Z,178
2018-11-02T01:42:19.222Z,178
2018-11-02T01:42:31.431Z,175
2018-11-02T01:42:43.662Z,174
2018-11-02T01:42:55.910Z,173
2018-11-02T01:43:08.999Z,162
2018-11-02T01:43:21.227Z,190
2018-11-02T01:43:33.578Z,163
2018-11-02T01:43:45.830Z,175
2018-11-02T01:43:58.068Z,175
2018-11-02T01:44:11.137Z,175
2018-11-02T01:44:23.437Z,175
2018-11-02T01:44:35.724Z,181
2018-11-02T01:44:47.983Z,171
2018-11-02T01:45:00.214Z,166
2018-11-02T01:45:12.749Z,166
2018-11-02T01:45:25.840Z,161
2018-11-02T01:45:38.036Z,161
2018-11-02T01:45:50.304Z,161
2018-11-02T01:46:02.509Z,169
2018-11-02T01:46:14.723Z,152
2018-11-02T01:46:28.179Z,165
2018-11-02T01:46:40.609Z,165
2018-11-02T01:46:52.856Z,170
2018-11-02T01:47:05.109Z,160
2018-11-02T01:47:17.313Z,147
2018-11-02T01:47:30.540Z,147
2018-11-02T01:47:42.837Z,147
2018-11-02T01:47:55.051Z,147
2018-11-02T01:48:07.287Z,165
2018-11-02T01:48:19.512Z,169
2018-11-02T01:48:31.716Z,169
2018-11-02T01:48:44.823Z,169
2018-11-02T01:48:57.046Z,157
2018-11-02T01:49:09.362Z,157
2018-11-02T01:49:21.611Z,158
2018-11-02T01:49:33.899Z,162
2018-11-02T01:49:47.198Z,162
2018-11-02T01:49:59.446Z,154
2018-11-02T01:50:11.758Z,154
2018-11-02T01:50:23.952Z,165
2018-11-02T01:50:36.197Z,181
2018-11-02T01:50:49.262Z,165
2018-11-02T01:51:01.480Z,165
2018-11-02T01:51:13.777Z,165
2018-11-02T01:51:26.020Z,165
2018-11-02T01:51:38.308Z,165
2018-11-02T01:51:50.601Z,163
2018-11-02T01:52:03.711Z,160
2018-11-02T01:52:15.932Z,155
2018-11-02T01:52:28.201Z,157
2018-11-02T01:52:40.513Z,171
2018-11-02T01:52:53.052Z,171
2018-11-02T01:53:06.110Z,171
2018-11-02T01:53:18.544Z,171
2018-11-02T01:53:30.797Z,171
2018-11-02T01:53:43.117Z,171
2018-11-02T01:53:55.425Z,171
2018-11-02T01:54:08.708Z,161
2018-11-02T01:54:20.956Z,161
2018-11-02T01:54:33.195Z,161
2018-11-02T01:54:45.422Z,161
2018-11-02T01:54:57.616Z,161
2018-11-02T01:55:09.948Z,161
2018-11-02T01:55:23.013Z,161
2018-11-02T01:55:35.224Z,164
2018-11-02T01:55:47.440Z,164
2018-11-02T01:55:59.642Z,164
2018-11-02T01:56:11.898Z,164
2018-11-02T01:56:25.049Z,164
2018-11-02T01:56:37.267Z,164
2018-11-02T01:56:49.607Z,164
2018-11-02T01:57:01.857Z,164
2018-11-02T01:57:14.082Z,164
2018-11-02T01:57:26.966Z,164
2018-11-02T01:57:39.264Z,164
2018-11-02T01:57:51.508Z,164
2018-11-02T01:58:03.759Z,164
2018-11-02T01:58:16.093Z,144
2018-11-02T01:58:28.296Z,170
2018-11-02T01:58:41.369Z,170
2018-11-02T01:58:53.594Z,170
2018-11-02T01:59:05.837Z,161
2018-11-02T01:59:18.098Z,161
2018-11-02T01:59:30.314Z,161
2018-11-02T01:59:43.409Z,161
2018-11-02T01:59:55.611Z,161
2018-11-02T02:00:07.898Z,161
2018-11-02T02:00:20.188Z,161
2018-11-02T02:00:32.596Z,162
2018-11-02T02:00:45.494Z,161
2018-11-02T02:00:57.951Z,153
2018-11-02T02:01:10.191Z,151
2018-11-02T02:01:22.387Z,151
2018-11-02T02:01:34.664Z,151
2018-11-02T02:01:47.016Z,151
2018-11-02T02:02:00.130Z,151
2018-11-02T02:02:12.395Z,151
2018-11-02T02:02:24.665Z,151
2018-11-02T02:02:36.874Z,151
2018-11-02T02:02:49.075Z,151
2018-11-02T02:03:02.324Z,151
2018-11-02T02:03:14.580Z,151
2018-11-02T02:03:26.825Z,152
2018-11-02T02:03:39.033Z,161
2018-11-02T02:03:51.242Z,161
2018-11-02T02:04:04.068Z,161
2018-11-02T02:04:16.757Z,161
2018-11-02T02:04:29.022Z,161
2018-11-02T02:04:41.412Z,161
2018-11-02T02:04:53.681Z,161
2018-11-02T02:05:05.918Z,161
2018-11-02T02:05:18.959Z,161
2018-11-02T02:05:31.193Z,161
2018-11-02T02:05:43.403Z,161
2018-11-02T02:05:55.591Z,161
2018-11-02T02:06:07.967Z,161
2018-11-02T02:06:20.835Z,161
2018-11-02T02:06:33.063Z,161
2018-11-02T02:06:45.351Z,161
2018-11-02T02:06:57.725Z,161
2018-11-02T02:07:09.925Z,161
2018-11-02T02:07:22.415Z,161
2018-11-02T02:07:35.228Z,161
2018-11-02T02:07:47.467Z,161
2018-11-02T02:07:59.718Z,161
2018-11-02T02:08:11.992Z,161
2018-11-02T02:08:24.185Z,161
2018-11-02T02:08:37.232Z,161
2018-11-02T02:08:49.442Z,161
2018-11-02T02:09:01.688Z,161
2018-11-02T02:09:13.880Z,161
2018-11-02T02:09:26.125Z,186
2018-11-02T02:09:38.935Z,188
2018-11-02T02:09:51.149Z,188
2018-11-02T02:10:03.587Z,188
2018-11-02T02:10:15.804Z,188
2018-11-02T02:10:28.065Z,188
2018-11-02T02:10:40.533Z,188
2018-11-02T02:10:53.320Z,188
2018-11-02T02:11:05.610Z,188
2018-11-02T02:11:17.840Z,188
2018-11-02T02:11:30.101Z,188
2018-11-02T02:11:42.344Z,188
2018-11-02T02:11:55.192Z,188
2018-11-02T02:12:07.494Z,188
2018-11-02T02:12:19.723Z,188
2018-11-02T02:12:32.113Z,188
2018-11-02T02:12:44.319Z,187
2018-11-02T02:12:57.320Z,173
2018-11-02T02:13:10.540Z,173
2018-11-02T02:13:24.854Z,173
2018-11-02T02:13:37.467Z,173
2018-11-02T02:13:49.678Z,173
2018-11-02T02:14:02.677Z,173
2018-11-02T02:14:14.916Z,173
2018-11-02T02:14:27.199Z,173
2018-11-02T02:14:39.416Z,173
2018-11-02T02:14:51.696Z,173
2018-11-02T02:15:03.919Z,173
2018-11-02T02:15:17.239Z,173
2018-11-02T02:15:29.462Z,173
2018-11-02T02:15:41.673Z,173
2018-11-02T02:15:53.960Z,173
2018-11-02T02:16:06.219Z,173
2018-11-02T02:16:19.376Z,173
2018-11-02T02:16:31.692Z,173
2018-11-02T02:16:43.924Z,173
2018-11-02T02:16:56.175Z,173
2018-11-02T02:17:08.477Z,173
2018-11-02T02:17:21.528Z,173
2018-11-02T02:17:33.871Z,173
2018-11-02T02:17:46.136Z,173
2018-11-02T02:17:58.377Z,173
2018-11-02T02:18:10.634Z,165
2018-11-02T02:18:22.923Z,165
2018-11-02T02:18:36.175Z,165
2018-11-02T02:18:48.552Z,165
2018-11-02T02:19:00.763Z,165
2018-11-02T02:19:13.070Z,165
2018-11-02T02:19:25.280Z,165
2018-11-02T02:19:38.350Z,165
2018-11-02T02:19:50.575Z,165
2018-11-02T02:20:02.858Z,165
2018-11-02T02:20:15.128Z,165
2018-11-02T02:20:27.340Z,165
2018-11-02T02:20:40.287Z,165
2018-11-02T02:20:52.908Z,165
2018-11-02T02:21:05.213Z,165
2018-11-02T02:21:17.504Z,165
2018-11-02T02:21:29.707Z,165
2018-11-02T02:21:41.924Z,165
2018-11-02T02:21:54.891Z,165
2018-11-02T02:22:07.180Z,165
2018-11-02T02:22:19.528Z,165
2018-11-02T02:22:31.738Z,165
2018-11-02T02:22:44.112Z,165
2018-11-02T02:22:58.974Z,165
2018-11-02T02:23:11.269Z,165
2018-11-02T02:23:23.534Z,165
2018-11-02T02:23:35.807Z,165
2018-11-02T02:23:48.051Z,165
2018-11-02T02:24:00.937Z,165
2018-11-02T02:24:13.181Z,165
2018-11-02T02:24:25.437Z,165
2018-11-02T02:24:37.747Z,165
2018-11-02T02:24:50.026Z,165
2018-11-02T02:25:02.387Z,165
2018-11-02T02:25:16.033Z,165
2018-11-02T02:25:28.237Z,165
2018-11-02T02:25:40.453Z,165
2018-11-02T02:25:52.647Z,165
2018-11-02T02:26:04.940Z,165
2018-11-02T02:26:18.173Z,165
2018-11-02T02:26:30.442Z,165
2018-11-02T02:26:42.767Z,165
2018-11-02T02:26:55.050Z,165
2018-11-02T02:27:07.270Z,165
2018-11-02T02:27:20.289Z,165
2018-11-02T02:27:32.613Z,165
2018-11-02T02:27:44.854Z,165
2018-11-02T02:27:57.102Z,165
2018-11-02T02:28:09.343Z,165
2018-11-02T02:28:21.574Z,165
2018-11-02T02:28:34.490Z,165
2018-11-02T02:28:47.252Z,165
2018-11-02T02:28:59.453Z,165
2018-11-02T02:29:11.656Z,165
2018-11-02T02:29:23.888Z,165
2018-11-02T02:29:37.332Z,165
2018-11-02T02:29:49.552Z,165
2018-11-02T02:30:01.765Z,165
2018-11-02T02:30:14.051Z,165
2018-11-02T02:30:26.314Z,165
2018-11-02T02:30:39.220Z,165
2018-11-02T02:30:51.621Z,165
2018-11-02T02:31:03.880Z,165
2018-11-02T02:31:16.165Z,165
2018-11-02T02:31:28.409Z,167
2018-11-02T02:31:40.710Z,167
2018-11-02T02:31:53.941Z,167
2018-11-02T02:32:06.168Z,163
2018-11-02T02:32:18.444Z,163
2018-11-02T02:32:30.760Z,160
2018-11-02T02:32:43.091Z,152
2018-11-02T02:32:56.188Z,148
2018-11-02T02:33:08.438Z,148
2018-11-02T02:33:20.751Z,149
2018-11-02T02:33:32.996Z,150
2018-11-02T02:33:45.291Z,150
2018-11-02T02:33:58.149Z,150
2018-11-02T02:34:10.764Z,150
2018-11-02T02:34:23.000Z,150
2018-11-02T02:34:35.324Z,150
2018-11-02T02:34:47.541Z,150
2018-11-02T02:34:59.768Z,150
2018-11-02T02:35:12.857Z,150
2018-11-02T02:35:25.101Z,150
2018-11-02T02:35:37.515Z,150
2018-11-02T02:35:49.851Z,150
2018-11-02T02:36:02.132Z,150
2018-11-02T02:36:15.580Z,150
2018-11-02T02:36:27.845Z,150
2018-11-02T02:36:40.164Z,150
2018-11-02T02:36:52.428Z,150
2018-11-02T02:37:04.736Z,150
2018-11-02T02:37:17.728Z,150
2018-11-02T02:37:30.449Z,150
2018-11-02T02:37:42.907Z,150
2018-11-02T02:37:55.239Z,150
2018-11-02T02:38:07.545Z,150
2018-11-02T02:38:19.804Z,150
2018-11-02T02:38:33.021Z,150
2018-11-02T02:38:45.343Z,150
2018-11-02T02:38:57.558Z,150
2018-11-02T02:39:09.896Z,150
2018-11-02T02:39:22.182Z,150
2018-11-02T02:39:35.439Z,150
2018-11-02T02:39:47.907Z,150
2018-11-02T02:40:00.181Z,150
2018-11-02T02:40:12.446Z,150
2018-11-02T02:40:24.697Z,150
2018-11-02T02:40:37.486Z,150
2018-11-02T02:40:50.187Z,150
2018-11-02T02:41:02.565Z,150
2018-11-02T02:41:14.769Z,150
2018-11-02T02:41:27.009Z,150
2018-11-02T02:41:39.263Z,150
2018-11-02T02:41:52.344Z,150
2018-11-02T02:42:04.679Z,150
2018-11-02T02:42:16.971Z,150
2018-11-02T02:42:29.205Z,150
2018-11-02T02:42:41.419Z,150
2018-11-02T02:42:54.728Z,150
2018-11-02T02:43:06.981Z,150
2018-11-02T02:43:19.226Z,150
2018-11-02T02:43:31.455Z,150
2018-11-02T02:43:43.762Z,150
2018-11-02T02:43:56.359Z,150
2018-11-02T02:44:09.133Z,150
2018-11-02T02:44:21.383Z,150
2018-11-02T02:44:33.637Z,150
2018-11-02T02:44:45.908Z,150
2018-11-02T02:44:58.141Z,150
2018-11-02T02:45:11.160Z,150
2018-11-02T02:45:23.424Z,150
2018-11-02T02:45:35.668Z,150
2018-11-02T02:45:47.950Z,150
2018-11-02T02:46:00.241Z,150
2018-11-02T02:46:13.389Z,150
2018-11-02T02:46:25.662Z,150
2018-11-02T02:46:37.994Z,150
2018-11-02T02:46:50.242Z,150
2018-11-02T02:47:02.515Z,150
2018-11-02T02:47:14.835Z,150
2018-11-02T02:47:27.702Z,150
2018-11-02T02:47:40.200Z,150
2018-11-02T02:47:52.559Z,150
2018-11-02T02:48:04.885Z,150
2018-11-02T02:48:17.402Z,150
2018-11-02T02:48:30.386Z,150
2018-11-02T02:48:42.631Z,150
2018-11-02T02:48:54.932Z,150
2018-11-02T02:49:07.193Z,150
2018-11-02T02:49:19.499Z,150
2018-11-02T02:49:32.534Z,150
2018-11-02T02:49:44.848Z,150
2018-11-02T02:49:57.059Z,150
2018-11-02T02:50:09.266Z,150
2018-11-02T02:50:21.518Z,150
2018-11-02T02:50:33.773Z,150
2018-11-02T02:50:46.961Z,150
2018-11-02T02:50:59.217Z,150
2018-11-02T02:51:11.469Z,150
2018-11-02T02:51:23.769Z,150
2018-11-02T02:51:35.994Z,150
2018-11-02T02:51:49.034Z,150